sensor_id;sensor_type;location;lat;lon;timestamp;P1;durP1;ratioP1;P2;durP2;ratioP2
76035;SDS011;64732;56.314;44.068;2023-03-14T00:00:23;7.30;;;2.40;;
76035;SDS011;64732;56.314;44.068;2023-03-14T00:02:44;6.15;;;2.95;;
76035;SDS011;64732;56.314;44.068;2023-03-14T00:05:06;8.75;;;1.95;;
76035;SDS011;64732;56.314;44.068;2023-03-14T00:07:27;7.97;;;2.80;;
76035;SDS011;64732;56.314;44.068;2023-03-14T00:09:51;5.70;;;2.10;;
76035;SDS011;64732;56.314;44.068;2023-03-14T00:12:12;3.60;;;1.77;;
76035;SDS011;64732;56.314;44.068;2023-03-14T00:14:33;4.13;;;2.00;;
76035;SDS011;64732;56.314;44.068;2023-03-14T00:16:57;4.60;;;1.88;;
76035;SDS011;64732;56.314;44.068;2023-03-14T00:19:18;3.60;;;1.38;;
76035;SDS011;64732;56.314;44.068;2023-03-14T00:21:39;4.68;;;2.42;;
76035;SDS011;64732;56.314;44.068;2023-03-14T00:24:00;11.55;;;3.70;;
76035;SDS011;64732;56.314;44.068;2023-03-14T00:26:21;4.90;;;2.38;;
76035;SDS011;64732;56.314;44.068;2023-03-14T00:28:42;8.07;;;2.40;;
76035;SDS011;64732;56.314;44.068;2023-03-14T00:31:04;4.03;;;2.22;;
76035;SDS011;64732;56.314;44.068;2023-03-14T00:33:28;4.68;;;2.28;;
76035;SDS011;64732;56.314;44.068;2023-03-14T00:35:53;4.43;;;2.03;;
76035;SDS011;64732;56.314;44.068;2023-03-14T00:38:14;4.38;;;1.88;;
76035;SDS011;64732;56.314;44.068;2023-03-14T00:40:38;3.58;;;1.95;;
76035;SDS011;64732;56.314;44.068;2023-03-14T00:42:59;4.18;;;2.53;;
76035;SDS011;64732;56.314;44.068;2023-03-14T00:45:20;4.25;;;2.22;;
76035;SDS011;64732;56.314;44.068;2023-03-14T00:47:41;7.07;;;2.90;;
76035;SDS011;64732;56.314;44.068;2023-03-14T00:50:05;4.80;;;2.35;;
76035;SDS011;64732;56.314;44.068;2023-03-14T00:52:27;5.22;;;2.20;;
76035;SDS011;64732;56.314;44.068;2023-03-14T00:54:48;5.55;;;2.50;;
76035;SDS011;64732;56.314;44.068;2023-03-14T00:57:09;8.48;;;2.42;;
76035;SDS011;64732;56.314;44.068;2023-03-14T00:59:30;8.20;;;3.15;;
76035;SDS011;64732;56.314;44.068;2023-03-14T01:01:51;6.45;;;2.75;;
76035;SDS011;64732;56.314;44.068;2023-03-14T01:04:12;8.38;;;3.00;;
76035;SDS011;64732;56.314;44.068;2023-03-14T01:06:35;5.80;;;2.53;;
76035;SDS011;64732;56.314;44.068;2023-03-14T01:08:57;6.32;;;2.72;;
76035;SDS011;64732;56.314;44.068;2023-03-14T01:11:19;4.57;;;1.80;;
76035;SDS011;64732;56.314;44.068;2023-03-14T01:13:41;4.25;;;2.25;;
76035;SDS011;64732;56.314;44.068;2023-03-14T01:16:02;4.45;;;2.72;;
76035;SDS011;64732;56.314;44.068;2023-03-14T01:18:24;3.22;;;1.90;;
76035;SDS011;64732;56.314;44.068;2023-03-14T01:20:46;4.70;;;2.60;;
76035;SDS011;64732;56.314;44.068;2023-03-14T01:23:10;5.15;;;2.22;;
76035;SDS011;64732;56.314;44.068;2023-03-14T01:25:30;3.83;;;2.35;;
76035;SDS011;64732;56.314;44.068;2023-03-14T01:27:51;4.97;;;2.67;;
76035;SDS011;64732;56.314;44.068;2023-03-14T01:30:13;4.07;;;2.00;;
76035;SDS011;64732;56.314;44.068;2023-03-14T01:32:34;3.20;;;1.60;;
76035;SDS011;64732;56.314;44.068;2023-03-14T01:34:57;4.05;;;2.25;;
76035;SDS011;64732;56.314;44.068;2023-03-14T01:37:18;5.03;;;2.33;;
76035;SDS011;64732;56.314;44.068;2023-03-14T01:39:42;3.40;;;2.38;;
76035;SDS011;64732;56.314;44.068;2023-03-14T01:42:03;7.57;;;2.30;;
76035;SDS011;64732;56.314;44.068;2023-03-14T01:44:24;5.90;;;2.53;;
76035;SDS011;64732;56.314;44.068;2023-03-14T01:46:45;2.92;;;1.88;;
76035;SDS011;64732;56.314;44.068;2023-03-14T01:49:09;4.30;;;2.17;;
76035;SDS011;64732;56.314;44.068;2023-03-14T01:51:34;3.92;;;2.15;;
76035;SDS011;64732;56.314;44.068;2023-03-14T01:53:59;3.97;;;2.47;;
76035;SDS011;64732;56.314;44.068;2023-03-14T01:56:28;5.95;;;2.55;;
76035;SDS011;64732;56.314;44.068;2023-03-14T01:58:49;6.88;;;2.20;;
76035;SDS011;64732;56.314;44.068;2023-03-14T02:01:11;5.60;;;2.28;;
76035;SDS011;64732;56.314;44.068;2023-03-14T02:03:34;3.47;;;2.10;;
76035;SDS011;64732;56.314;44.068;2023-03-14T02:05:59;4.13;;;2.20;;
76035;SDS011;64732;56.314;44.068;2023-03-14T02:08:24;5.35;;;2.72;;
76035;SDS011;64732;56.314;44.068;2023-03-14T02:10:47;3.40;;;1.85;;
76035;SDS011;64732;56.314;44.068;2023-03-14T02:13:12;6.15;;;2.38;;
76035;SDS011;64732;56.314;44.068;2023-03-14T02:15:34;5.03;;;2.45;;
76035;SDS011;64732;56.314;44.068;2023-03-14T02:17:55;4.13;;;2.05;;
76035;SDS011;64732;56.314;44.068;2023-03-14T02:20:21;5.05;;;2.38;;
76035;SDS011;64732;56.314;44.068;2023-03-14T02:22:48;4.88;;;2.22;;
76035;SDS011;64732;56.314;44.068;2023-03-14T02:25:11;4.95;;;2.22;;
76035;SDS011;64732;56.314;44.068;2023-03-14T02:27:36;9.23;;;2.60;;
76035;SDS011;64732;56.314;44.068;2023-03-14T02:29:59;4.90;;;2.10;;
76035;SDS011;64732;56.314;44.068;2023-03-14T02:32:22;4.00;;;2.10;;
76035;SDS011;64732;56.314;44.068;2023-03-14T02:34:45;3.70;;;2.22;;
76035;SDS011;64732;56.314;44.068;2023-03-14T02:37:08;5.65;;;2.42;;
76035;SDS011;64732;56.314;44.068;2023-03-14T02:39:31;4.63;;;2.03;;
76035;SDS011;64732;56.314;44.068;2023-03-14T02:41:56;5.18;;;2.10;;
76035;SDS011;64732;56.314;44.068;2023-03-14T02:44:20;6.95;;;2.63;;
76035;SDS011;64732;56.314;44.068;2023-03-14T02:46:41;7.28;;;2.75;;
76035;SDS011;64732;56.314;44.068;2023-03-14T02:49:02;3.28;;;1.92;;
76035;SDS011;64732;56.314;44.068;2023-03-14T02:51:24;5.75;;;2.90;;
76035;SDS011;64732;56.314;44.068;2023-03-14T02:53:46;3.28;;;1.38;;
76035;SDS011;64732;56.314;44.068;2023-03-14T02:56:08;3.00;;;1.95;;
76035;SDS011;64732;56.314;44.068;2023-03-14T02:58:30;4.72;;;2.60;;
76035;SDS011;64732;56.314;44.068;2023-03-14T03:00:54;5.25;;;2.47;;
76035;SDS011;64732;56.314;44.068;2023-03-14T03:03:15;5.57;;;2.83;;
76035;SDS011;64732;56.314;44.068;2023-03-14T03:05:36;5.57;;;2.58;;
76035;SDS011;64732;56.314;44.068;2023-03-14T03:07:57;8.40;;;3.50;;
76035;SDS011;64732;56.314;44.068;2023-03-14T03:10:18;7.20;;;2.72;;
76035;SDS011;64732;56.314;44.068;2023-03-14T03:12:39;7.45;;;2.92;;
76035;SDS011;64732;56.314;44.068;2023-03-14T03:15:00;6.78;;;3.00;;
76035;SDS011;64732;56.314;44.068;2023-03-14T03:17:23;6.25;;;2.80;;
76035;SDS011;64732;56.314;44.068;2023-03-14T03:19:44;7.90;;;3.03;;
76035;SDS011;64732;56.314;44.068;2023-03-14T03:22:05;5.25;;;2.92;;
76035;SDS011;64732;56.314;44.068;2023-03-14T03:24:27;5.93;;;2.72;;
76035;SDS011;64732;56.314;44.068;2023-03-14T03:26:48;7.88;;;2.70;;
76035;SDS011;64732;56.314;44.068;2023-03-14T03:29:09;4.85;;;2.88;;
76035;SDS011;64732;56.314;44.068;2023-03-14T03:31:30;4.90;;;2.80;;
76035;SDS011;64732;56.314;44.068;2023-03-14T03:33:53;9.52;;;3.67;;
76035;SDS011;64732;56.314;44.068;2023-03-14T03:36:14;8.60;;;2.78;;
76035;SDS011;64732;56.314;44.068;2023-03-14T03:38:35;6.60;;;2.67;;
76035;SDS011;64732;56.314;44.068;2023-03-14T03:40:57;11.98;;;4.45;;
76035;SDS011;64732;56.314;44.068;2023-03-14T03:43:18;5.05;;;3.15;;
76035;SDS011;64732;56.314;44.068;2023-03-14T03:45:38;6.25;;;3.35;;
76035;SDS011;64732;56.314;44.068;2023-03-14T03:47:59;10.95;;;3.67;;
76035;SDS011;64732;56.314;44.068;2023-03-14T03:50:23;8.48;;;3.53;;
76035;SDS011;64732;56.314;44.068;2023-03-14T03:52:44;9.27;;;3.70;;
76035;SDS011;64732;56.314;44.068;2023-03-14T03:55:05;9.15;;;3.45;;
76035;SDS011;64732;56.314;44.068;2023-03-14T03:57:27;6.07;;;2.72;;
76035;SDS011;64732;56.314;44.068;2023-03-14T03:59:48;5.82;;;2.83;;
76035;SDS011;64732;56.314;44.068;2023-03-14T04:02:08;9.00;;;3.78;;
76035;SDS011;64732;56.314;44.068;2023-03-14T04:04:29;6.35;;;3.10;;
76035;SDS011;64732;56.314;44.068;2023-03-14T04:06:53;7.22;;;3.67;;
76035;SDS011;64732;56.314;44.068;2023-03-14T04:09:14;8.13;;;3.67;;
76035;SDS011;64732;56.314;44.068;2023-03-14T04:11:35;9.32;;;3.22;;
76035;SDS011;64732;56.314;44.068;2023-03-14T04:13:56;6.18;;;2.95;;
76035;SDS011;64732;56.314;44.068;2023-03-14T04:16:17;6.68;;;3.08;;
76035;SDS011;64732;56.314;44.068;2023-03-14T04:18:40;6.82;;;3.65;;
76035;SDS011;64732;56.314;44.068;2023-03-14T04:21:01;7.32;;;3.65;;
76035;SDS011;64732;56.314;44.068;2023-03-14T04:23:26;6.20;;;3.47;;
76035;SDS011;64732;56.314;44.068;2023-03-14T04:25:51;7.55;;;3.13;;
76035;SDS011;64732;56.314;44.068;2023-03-14T04:28:13;9.38;;;3.70;;
76035;SDS011;64732;56.314;44.068;2023-03-14T04:30:34;8.15;;;3.63;;
76035;SDS011;64732;56.314;44.068;2023-03-14T04:32:55;8.23;;;4.00;;
76035;SDS011;64732;56.314;44.068;2023-03-14T04:35:16;11.02;;;5.07;;
76035;SDS011;64732;56.314;44.068;2023-03-14T04:37:37;10.95;;;3.60;;
76035;SDS011;64732;56.314;44.068;2023-03-14T04:40:02;9.38;;;4.65;;
76035;SDS011;64732;56.314;44.068;2023-03-14T04:42:23;5.90;;;3.25;;
76035;SDS011;64732;56.314;44.068;2023-03-14T04:44:44;6.25;;;3.78;;
76035;SDS011;64732;56.314;44.068;2023-03-14T04:47:05;9.15;;;4.38;;
76035;SDS011;64732;56.314;44.068;2023-03-14T04:49:26;7.20;;;3.97;;
76035;SDS011;64732;56.314;44.068;2023-03-14T04:51:47;5.75;;;2.67;;
76035;SDS011;64732;56.314;44.068;2023-03-14T04:54:08;5.15;;;3.33;;
76035;SDS011;64732;56.314;44.068;2023-03-14T04:56:32;6.07;;;2.85;;
76035;SDS011;64732;56.314;44.068;2023-03-14T04:58:54;6.15;;;3.15;;
76035;SDS011;64732;56.314;44.068;2023-03-14T05:01:15;5.47;;;3.10;;
76035;SDS011;64732;56.314;44.068;2023-03-14T05:03:36;5.68;;;3.35;;
76035;SDS011;64732;56.314;44.068;2023-03-14T05:05:57;5.93;;;3.15;;
76035;SDS011;64732;56.314;44.068;2023-03-14T05:08:18;9.95;;;3.45;;
76035;SDS011;64732;56.314;44.068;2023-03-14T05:10:39;5.35;;;3.13;;
76035;SDS011;64732;56.314;44.068;2023-03-14T05:13:02;5.53;;;2.25;;
76035;SDS011;64732;56.314;44.068;2023-03-14T05:15:24;6.25;;;2.72;;
76035;SDS011;64732;56.314;44.068;2023-03-14T05:17:45;5.05;;;2.67;;
76035;SDS011;64732;56.314;44.068;2023-03-14T05:20:06;9.13;;;3.05;;
76035;SDS011;64732;56.314;44.068;2023-03-14T05:22:28;6.00;;;3.50;;
76035;SDS011;64732;56.314;44.068;2023-03-14T05:24:49;4.78;;;2.45;;
76035;SDS011;64732;56.314;44.068;2023-03-14T05:27:10;6.25;;;2.60;;
76035;SDS011;64732;56.314;44.068;2023-03-14T05:29:34;4.93;;;2.90;;
76035;SDS011;64732;56.314;44.068;2023-03-14T05:31:55;4.95;;;2.63;;
76035;SDS011;64732;56.314;44.068;2023-03-14T05:34:17;4.20;;;2.08;;
76035;SDS011;64732;56.314;44.068;2023-03-14T05:36:38;5.78;;;3.00;;
76035;SDS011;64732;56.314;44.068;2023-03-14T05:38:59;4.53;;;2.40;;
76035;SDS011;64732;56.314;44.068;2023-03-14T05:41:20;6.45;;;2.55;;
76035;SDS011;64732;56.314;44.068;2023-03-14T05:43:41;3.28;;;2.15;;
76035;SDS011;64732;56.314;44.068;2023-03-14T05:46:05;5.35;;;2.55;;
76035;SDS011;64732;56.314;44.068;2023-03-14T05:48:26;4.90;;;2.00;;
76035;SDS011;64732;56.314;44.068;2023-03-14T05:50:47;3.95;;;2.00;;
76035;SDS011;64732;56.314;44.068;2023-03-14T05:53:08;3.72;;;1.67;;
76035;SDS011;64732;56.314;44.068;2023-03-14T05:55:29;4.00;;;2.30;;
76035;SDS011;64732;56.314;44.068;2023-03-14T05:57:50;6.78;;;2.95;;
76035;SDS011;64732;56.314;44.068;2023-03-14T06:00:13;5.28;;;2.80;;
76035;SDS011;64732;56.314;44.068;2023-03-14T06:02:37;4.72;;;2.20;;
76035;SDS011;64732;56.314;44.068;2023-03-14T06:04:58;5.53;;;2.25;;
76035;SDS011;64732;56.314;44.068;2023-03-14T06:07:19;4.25;;;2.30;;
76035;SDS011;64732;56.314;44.068;2023-03-14T06:09:40;3.17;;;2.05;;
76035;SDS011;64732;56.314;44.068;2023-03-14T06:12:01;3.45;;;1.85;;
76035;SDS011;64732;56.314;44.068;2023-03-14T06:14:22;5.55;;;2.03;;
76035;SDS011;64732;56.314;44.068;2023-03-14T06:16:43;5.50;;;2.00;;
76035;SDS011;64732;56.314;44.068;2023-03-14T06:19:07;5.93;;;2.28;;
76035;SDS011;64732;56.314;44.068;2023-03-14T06:21:28;5.72;;;2.20;;
76035;SDS011;64732;56.314;44.068;2023-03-14T06:23:49;3.42;;;1.83;;
76035;SDS011;64732;56.314;44.068;2023-03-14T06:26:10;6.25;;;2.70;;
76035;SDS011;64732;56.314;44.068;2023-03-14T06:28:31;7.88;;;3.03;;
76035;SDS011;64732;56.314;44.068;2023-03-14T06:30:52;5.07;;;2.50;;
76035;SDS011;64732;56.314;44.068;2023-03-14T06:33:13;7.97;;;2.30;;
76035;SDS011;64732;56.314;44.068;2023-03-14T06:35:37;4.72;;;2.47;;
76035;SDS011;64732;56.314;44.068;2023-03-14T06:37:58;3.92;;;2.20;;
76035;SDS011;64732;56.314;44.068;2023-03-14T06:40:19;4.75;;;2.35;;
76035;SDS011;64732;56.314;44.068;2023-03-14T06:42:40;5.80;;;2.60;;
76035;SDS011;64732;56.314;44.068;2023-03-14T06:45:01;2.97;;;1.58;;
76035;SDS011;64732;56.314;44.068;2023-03-14T06:47:24;5.28;;;2.25;;
76035;SDS011;64732;56.314;44.068;2023-03-14T06:49:44;2.13;;;1.33;;
76035;SDS011;64732;56.314;44.068;2023-03-14T06:52:08;4.47;;;1.80;;
76035;SDS011;64732;56.314;44.068;2023-03-14T06:54:29;4.13;;;2.05;;
76035;SDS011;64732;56.314;44.068;2023-03-14T06:56:50;7.22;;;1.73;;
76035;SDS011;64732;56.314;44.068;2023-03-14T06:59:11;5.35;;;1.73;;
76035;SDS011;64732;56.314;44.068;2023-03-14T07:01:33;3.65;;;2.05;;
76035;SDS011;64732;56.314;44.068;2023-03-14T07:03:54;3.92;;;1.25;;
76035;SDS011;64732;56.314;44.068;2023-03-14T07:06:15;4.07;;;1.65;;
76035;SDS011;64732;56.314;44.068;2023-03-14T07:08:38;5.75;;;1.50;;
76035;SDS011;64732;56.314;44.068;2023-03-14T07:10:59;2.95;;;1.48;;
76035;SDS011;64732;56.314;44.068;2023-03-14T07:13:20;2.60;;;1.40;;
76035;SDS011;64732;56.314;44.068;2023-03-14T07:15:41;2.03;;;1.25;;
76035;SDS011;64732;56.314;44.068;2023-03-14T07:18:02;3.42;;;1.38;;
76035;SDS011;64732;56.314;44.068;2023-03-14T07:20:23;3.75;;;1.17;;
76035;SDS011;64732;56.314;44.068;2023-03-14T07:22:46;2.35;;;1.15;;
76035;SDS011;64732;56.314;44.068;2023-03-14T07:25:10;5.15;;;1.45;;
76035;SDS011;64732;56.314;44.068;2023-03-14T07:27:31;3.92;;;1.25;;
76035;SDS011;64732;56.314;44.068;2023-03-14T07:29:52;12.40;;;2.13;;
76035;SDS011;64732;56.314;44.068;2023-03-14T07:32:13;3.80;;;1.27;;
76035;SDS011;64732;56.314;44.068;2023-03-14T07:34:34;2.17;;;1.08;;
76035;SDS011;64732;56.314;44.068;2023-03-14T07:36:55;6.93;;;1.50;;
76035;SDS011;64732;56.314;44.068;2023-03-14T07:39:16;2.22;;;1.00;;
76035;SDS011;64732;56.314;44.068;2023-03-14T07:41:40;4.40;;;1.25;;
76035;SDS011;64732;56.314;44.068;2023-03-14T07:44:01;4.28;;;1.30;;
76035;SDS011;64732;56.314;44.068;2023-03-14T07:46:22;2.70;;;0.98;;
76035;SDS011;64732;56.314;44.068;2023-03-14T07:48:43;3.63;;;1.15;;
76035;SDS011;64732;56.314;44.068;2023-03-14T07:51:04;2.00;;;1.02;;
76035;SDS011;64732;56.314;44.068;2023-03-14T07:53:26;4.60;;;1.45;;
76035;SDS011;64732;56.314;44.068;2023-03-14T07:55:47;3.28;;;1.10;;
76035;SDS011;64732;56.314;44.068;2023-03-14T07:58:11;4.97;;;1.58;;
76035;SDS011;64732;56.314;44.068;2023-03-14T08:05:43;5.40;;;1.52;;
76035;SDS011;64732;56.314;44.068;2023-03-14T08:08:04;3.20;;;1.45;;
76035;SDS011;64732;56.314;44.068;2023-03-14T08:10:25;4.90;;;1.67;;
76035;SDS011;64732;56.314;44.068;2023-03-14T08:12:46;2.35;;;1.00;;
76035;SDS011;64732;56.314;44.068;2023-03-14T08:15:10;3.97;;;1.33;;
76035;SDS011;64732;56.314;44.068;2023-03-14T08:17:31;1.55;;;0.80;;
76035;SDS011;64732;56.314;44.068;2023-03-14T08:19:55;4.57;;;1.40;;
76035;SDS011;64732;56.314;44.068;2023-03-14T08:22:16;2.75;;;1.10;;
76035;SDS011;64732;56.314;44.068;2023-03-14T08:24:37;7.78;;;1.58;;
76035;SDS011;64732;56.314;44.068;2023-03-14T08:26:58;5.43;;;1.30;;
76035;SDS011;64732;56.314;44.068;2023-03-14T08:29:19;2.03;;;0.98;;
76035;SDS011;64732;56.314;44.068;2023-03-14T08:31:44;2.05;;;1.15;;
76035;SDS011;64732;56.314;44.068;2023-03-14T08:34:05;2.90;;;1.23;;
76035;SDS011;64732;56.314;44.068;2023-03-14T08:36:26;4.03;;;0.88;;
76035;SDS011;64732;56.314;44.068;2023-03-14T08:38:47;1.60;;;1.00;;
76035;SDS011;64732;56.314;44.068;2023-03-14T08:41:08;1.88;;;0.82;;
76035;SDS011;64732;56.314;44.068;2023-03-14T08:43:30;1.95;;;1.00;;
76035;SDS011;64732;56.314;44.068;2023-03-14T08:45:51;2.03;;;0.95;;
76035;SDS011;64732;56.314;44.068;2023-03-14T08:48:15;2.90;;;1.00;;
76035;SDS011;64732;56.314;44.068;2023-03-14T08:50:36;4.30;;;1.27;;
76035;SDS011;64732;56.314;44.068;2023-03-14T08:52:57;1.65;;;0.77;;
76035;SDS011;64732;56.314;44.068;2023-03-14T08:55:18;3.95;;;1.13;;
76035;SDS011;64732;56.314;44.068;2023-03-14T08:57:39;3.38;;;1.08;;
76035;SDS011;64732;56.314;44.068;2023-03-14T09:00:00;1.45;;;0.52;;
76035;SDS011;64732;56.314;44.068;2023-03-14T09:02:21;1.80;;;0.60;;
76035;SDS011;64732;56.314;44.068;2023-03-14T09:04:47;4.25;;;0.90;;
76035;SDS011;64732;56.314;44.068;2023-03-14T09:07:08;4.80;;;1.23;;
76035;SDS011;64732;56.314;44.068;2023-03-14T09:09:29;1.73;;;0.65;;
76035;SDS011;64732;56.314;44.068;2023-03-14T09:11:50;2.30;;;0.70;;
76035;SDS011;64732;56.314;44.068;2023-03-14T09:14:11;2.97;;;1.00;;
76035;SDS011;64732;56.314;44.068;2023-03-14T09:16:33;4.10;;;1.10;;
76035;SDS011;64732;56.314;44.068;2023-03-14T09:18:54;1.90;;;0.77;;
76035;SDS011;64732;56.314;44.068;2023-03-14T09:21:18;3.67;;;0.90;;
76035;SDS011;64732;56.314;44.068;2023-03-14T09:23:39;2.10;;;0.85;;
76035;SDS011;64732;56.314;44.068;2023-03-14T09:26:00;1.88;;;1.02;;
76035;SDS011;64732;56.314;44.068;2023-03-14T09:28:21;3.92;;;1.23;;
76035;SDS011;64732;56.314;44.068;2023-03-14T09:30:42;1.75;;;0.75;;
76035;SDS011;64732;56.314;44.068;2023-03-14T09:33:03;1.85;;;0.95;;
76035;SDS011;64732;56.314;44.068;2023-03-14T09:35:24;2.08;;;0.60;;
76035;SDS011;64732;56.314;44.068;2023-03-14T09:37:48;4.43;;;1.75;;
76035;SDS011;64732;56.314;44.068;2023-03-14T09:40:11;1.73;;;0.80;;
76035;SDS011;64732;56.314;44.068;2023-03-14T09:42:33;2.92;;;1.33;;
76035;SDS011;64732;56.314;44.068;2023-03-14T09:44:59;4.10;;;0.85;;
76035;SDS011;64732;56.314;44.068;2023-03-14T09:47:24;1.90;;;0.73;;
76035;SDS011;64732;56.314;44.068;2023-03-14T09:49:45;6.72;;;1.23;;
76035;SDS011;64732;56.314;44.068;2023-03-14T09:52:08;5.10;;;1.10;;
76035;SDS011;64732;56.314;44.068;2023-03-14T09:54:37;2.20;;;1.25;;
76035;SDS011;64732;56.314;44.068;2023-03-14T09:56:59;1.10;;;0.45;;
76035;SDS011;64732;56.314;44.068;2023-03-14T09:59:20;4.13;;;1.00;;
76035;SDS011;64732;56.314;44.068;2023-03-14T10:01:41;2.65;;;0.85;;
76035;SDS011;64732;56.314;44.068;2023-03-14T10:04:04;4.28;;;1.58;;
76035;SDS011;64732;56.314;44.068;2023-03-14T10:06:27;2.90;;;1.20;;
76035;SDS011;64732;56.314;44.068;2023-03-14T10:08:50;2.88;;;1.02;;
76035;SDS011;64732;56.314;44.068;2023-03-14T10:11:17;3.15;;;0.93;;
76035;SDS011;64732;56.314;44.068;2023-03-14T10:13:46;2.78;;;1.00;;
76035;SDS011;64732;56.314;44.068;2023-03-14T10:16:09;3.65;;;1.40;;
76035;SDS011;64732;56.314;44.068;2023-03-14T10:18:30;2.60;;;1.20;;
76035;SDS011;64732;56.314;44.068;2023-03-14T10:21:01;3.15;;;1.35;;
76035;SDS011;64732;56.314;44.068;2023-03-14T10:23:24;4.57;;;1.40;;
76035;SDS011;64732;56.314;44.068;2023-03-14T10:25:58;3.00;;;1.25;;
76035;SDS011;64732;56.314;44.068;2023-03-14T10:28:26;3.20;;;1.05;;
76035;SDS011;64732;56.314;44.068;2023-03-14T10:30:48;3.75;;;1.05;;
76035;SDS011;64732;56.314;44.068;2023-03-14T10:33:10;2.10;;;1.05;;
76035;SDS011;64732;56.314;44.068;2023-03-14T10:35:32;3.17;;;1.45;;
76035;SDS011;64732;56.314;44.068;2023-03-14T10:37:55;4.00;;;1.20;;
76035;SDS011;64732;56.314;44.068;2023-03-14T10:40:18;2.13;;;0.95;;
76035;SDS011;64732;56.314;44.068;2023-03-14T10:42:40;2.40;;;1.17;;
76035;SDS011;64732;56.314;44.068;2023-03-14T10:45:09;2.08;;;1.13;;
76035;SDS011;64732;56.314;44.068;2023-03-14T10:47:47;5.15;;;1.85;;
76035;SDS011;64732;56.314;44.068;2023-03-14T10:50:22;2.17;;;1.20;;
76035;SDS011;64732;56.314;44.068;2023-03-14T10:52:46;8.63;;;1.20;;
76035;SDS011;64732;56.314;44.068;2023-03-14T10:55:10;5.72;;;1.20;;
76035;SDS011;64732;56.314;44.068;2023-03-14T10:57:38;4.57;;;1.40;;
76035;SDS011;64732;56.314;44.068;2023-03-14T10:59:59;3.75;;;0.88;;
76035;SDS011;64732;56.314;44.068;2023-03-14T11:02:27;3.88;;;1.88;;
76035;SDS011;64732;56.314;44.068;2023-03-14T11:04:57;2.20;;;1.13;;
76035;SDS011;64732;56.314;44.068;2023-03-14T11:07:24;4.13;;;1.17;;
76035;SDS011;64732;56.314;44.068;2023-03-14T11:09:50;3.28;;;1.50;;
76035;SDS011;64732;56.314;44.068;2023-03-14T11:12:18;6.07;;;1.45;;
76035;SDS011;64732;56.314;44.068;2023-03-14T11:14:50;2.55;;;1.05;;
76035;SDS011;64732;56.314;44.068;2023-03-14T11:17:18;5.20;;;1.45;;
76035;SDS011;64732;56.314;44.068;2023-03-14T11:19:45;7.28;;;1.83;;
76035;SDS011;64732;56.314;44.068;2023-03-14T11:22:20;2.67;;;1.17;;
76035;SDS011;64732;56.314;44.068;2023-03-14T11:24:53;3.88;;;0.98;;
76035;SDS011;64732;56.314;44.068;2023-03-14T11:27:21;3.90;;;1.45;;
76035;SDS011;64732;56.314;44.068;2023-03-14T11:29:45;3.15;;;1.05;;
76035;SDS011;64732;56.314;44.068;2023-03-14T11:32:13;2.75;;;1.30;;
76035;SDS011;64732;56.314;44.068;2023-03-14T11:34:38;4.53;;;1.20;;
76035;SDS011;64732;56.314;44.068;2023-03-14T11:37:06;3.50;;;1.30;;
76035;SDS011;64732;56.314;44.068;2023-03-14T11:39:34;4.43;;;1.83;;
76035;SDS011;64732;56.314;44.068;2023-03-14T11:41:58;4.57;;;1.52;;
76035;SDS011;64732;56.314;44.068;2023-03-14T11:44:21;2.65;;;1.25;;
76035;SDS011;64732;56.314;44.068;2023-03-14T11:46:48;3.80;;;1.73;;
76035;SDS011;64732;56.314;44.068;2023-03-14T11:49:14;2.88;;;1.17;;
76035;SDS011;64732;56.314;44.068;2023-03-14T11:54:08;6.03;;;1.45;;
76035;SDS011;64732;56.314;44.068;2023-03-14T11:56:36;3.13;;;1.13;;
76035;SDS011;64732;56.314;44.068;2023-03-14T11:59:01;3.25;;;1.33;;
76035;SDS011;64732;56.314;44.068;2023-03-14T12:01:27;4.28;;;1.67;;
76035;SDS011;64732;56.314;44.068;2023-03-14T12:03:53;2.35;;;1.02;;
76035;SDS011;64732;56.314;44.068;2023-03-14T12:06:17;2.47;;;0.95;;
76035;SDS011;64732;56.314;44.068;2023-03-14T12:08:43;1.88;;;0.90;;
76035;SDS011;64732;56.314;44.068;2023-03-14T12:11:12;2.67;;;1.27;;
76035;SDS011;64732;56.314;44.068;2023-03-14T12:13:38;2.78;;;1.08;;
76035;SDS011;64732;56.314;44.068;2023-03-14T12:16:00;2.20;;;0.98;;
76035;SDS011;64732;56.314;44.068;2023-03-14T12:18:26;1.48;;;0.70;;
76035;SDS011;64732;56.314;44.068;2023-03-14T12:20:51;3.03;;;1.08;;
76035;SDS011;64732;56.314;44.068;2023-03-14T12:23:14;3.25;;;0.98;;
76035;SDS011;64732;56.314;44.068;2023-03-14T12:25:35;3.20;;;1.50;;
76035;SDS011;64732;56.314;44.068;2023-03-14T12:30:35;3.67;;;1.15;;
76035;SDS011;64732;56.314;44.068;2023-03-14T12:33:19;4.95;;;2.00;;
76035;SDS011;64732;56.314;44.068;2023-03-14T12:35:52;21.48;;;1.33;;
76035;SDS011;64732;56.314;44.068;2023-03-14T12:38:18;2.40;;;0.88;;
76035;SDS011;64732;56.314;44.068;2023-03-14T12:40:47;2.13;;;0.80;;
76035;SDS011;64732;56.314;44.068;2023-03-14T12:43:27;1.98;;;0.98;;
76035;SDS011;64732;56.314;44.068;2023-03-14T12:46:06;2.72;;;1.20;;
76035;SDS011;64732;56.314;44.068;2023-03-14T12:48:29;1.98;;;0.90;;
76035;SDS011;64732;56.314;44.068;2023-03-14T12:50:53;2.63;;;1.00;;
76035;SDS011;64732;56.314;44.068;2023-03-14T12:53:21;2.03;;;1.10;;
76035;SDS011;64732;56.314;44.068;2023-03-14T12:55:54;5.10;;;1.30;;
76035;SDS011;64732;56.314;44.068;2023-03-14T12:58:20;4.20;;;1.40;;
76035;SDS011;64732;56.314;44.068;2023-03-14T13:00:51;2.28;;;1.15;;
76035;SDS011;64732;56.314;44.068;2023-03-14T13:03:17;3.92;;;1.33;;
76035;SDS011;64732;56.314;44.068;2023-03-14T13:05:51;3.53;;;1.20;;
76035;SDS011;64732;56.314;44.068;2023-03-14T13:08:15;3.33;;;1.25;;
76035;SDS011;64732;56.314;44.068;2023-03-14T13:10:54;5.65;;;1.50;;
76035;SDS011;64732;56.314;44.068;2023-03-14T13:13:17;3.33;;;1.17;;
76035;SDS011;64732;56.314;44.068;2023-03-14T13:15:43;3.30;;;1.38;;
76035;SDS011;64732;56.314;44.068;2023-03-14T13:18:09;2.85;;;1.10;;
76035;SDS011;64732;56.314;44.068;2023-03-14T13:20:32;5.30;;;1.42;;
76035;SDS011;64732;56.314;44.068;2023-03-14T13:22:55;4.30;;;1.70;;
76035;SDS011;64732;56.314;44.068;2023-03-14T13:25:16;3.97;;;1.45;;
76035;SDS011;64732;56.314;44.068;2023-03-14T13:27:38;2.45;;;1.10;;
76035;SDS011;64732;56.314;44.068;2023-03-14T13:29:59;5.25;;;1.17;;
76035;SDS011;64732;56.314;44.068;2023-03-14T13:32:29;4.28;;;1.08;;
76035;SDS011;64732;56.314;44.068;2023-03-14T13:34:50;4.72;;;1.30;;
76035;SDS011;64732;56.314;44.068;2023-03-14T13:37:14;3.55;;;1.35;;
76035;SDS011;64732;56.314;44.068;2023-03-14T13:39:37;2.95;;;1.48;;
76035;SDS011;64732;56.314;44.068;2023-03-14T13:42:00;3.05;;;1.25;;
76035;SDS011;64732;56.314;44.068;2023-03-14T13:44:23;2.63;;;1.40;;
76035;SDS011;64732;56.314;44.068;2023-03-14T13:46:45;3.28;;;1.20;;
76035;SDS011;64732;56.314;44.068;2023-03-14T13:49:09;2.55;;;1.00;;
76035;SDS011;64732;56.314;44.068;2023-03-14T13:51:33;4.22;;;1.52;;
76035;SDS011;64732;56.314;44.068;2023-03-14T13:53:54;2.83;;;0.90;;
76035;SDS011;64732;56.314;44.068;2023-03-14T13:56:16;4.20;;;1.45;;
76035;SDS011;64732;56.314;44.068;2023-03-14T13:58:38;3.08;;;1.58;;
76035;SDS011;64732;56.314;44.068;2023-03-14T14:01:10;4.78;;;1.50;;
76035;SDS011;64732;56.314;44.068;2023-03-14T14:03:34;4.38;;;2.00;;
76035;SDS011;64732;56.314;44.068;2023-03-14T14:06:00;4.32;;;1.48;;
76035;SDS011;64732;56.314;44.068;2023-03-14T14:08:21;4.60;;;1.45;;
76035;SDS011;64732;56.314;44.068;2023-03-14T14:10:42;2.90;;;0.95;;
76035;SDS011;64732;56.314;44.068;2023-03-14T14:13:04;4.72;;;1.58;;
76035;SDS011;64732;56.314;44.068;2023-03-14T14:15:29;3.10;;;1.35;;
76035;SDS011;64732;56.314;44.068;2023-03-14T14:17:52;3.10;;;1.45;;